Terminal Aerodrome Forecast
Issued by NWS Greer, SC

Home | Current Version | Previous Version | Text Only | Print | Product List | Glossary On
Versions: 1 2 3 4 5 6 7 8 9 10 11 12 13 14 15 16 17 18 19 20 21 22
685
FTUS42 KGSP 172335
TAFGSP
TAF
KGSP 172335Z 1800/1824 23008KT P6SM BKN045
     FM180800 23011KT 5SM BR OVC015
     FM181000 23010KT 4SM BR OVC007
     FM181200 24008KT 4SM BR BKN020
     FM181400 26008KT P6SM SCT110 BKN250
     FM182200 33005KT P6SM FEW250=

USA.gov is the U.S. government's official web portal to all federal, state and local government web resources and services.